createdAt,value
2022-09-28T00:00:20.053Z,15.30
2022-09-28T00:02:47.331Z,15.31
2022-09-28T00:05:14.508Z,15.39
2022-09-28T00:07:42.065Z,15.15
2022-09-28T00:10:09.387Z,15.06
2022-09-28T00:12:36.130Z,15.09
2022-09-28T00:15:03.234Z,15.05
2022-09-28T00:17:30.245Z,14.94
2022-09-28T00:19:58.029Z,15.05
2022-09-28T00:22:24.756Z,15.03
2022-09-28T00:24:51.836Z,14.77
2022-09-28T00:27:18.579Z,14.53
2022-09-28T00:29:45.268Z,14.79
2022-09-28T00:32:13.746Z,14.63
2022-09-28T00:34:43.249Z,14.70
2022-09-28T00:37:10.076Z,14.72
2022-09-28T00:39:38.347Z,14.88
2022-09-28T00:42:10.934Z,14.89
2022-09-28T00:44:46.569Z,14.68
2022-09-28T00:47:15.535Z,14.67
2022-09-28T00:49:48.601Z,14.76
2022-09-28T00:52:17.062Z,14.76
2022-09-28T00:54:44.063Z,14.76
2022-09-28T00:57:10.743Z,14.70
2022-09-28T00:59:37.437Z,14.66
2022-09-28T01:02:05.237Z,14.78
2022-09-28T01:04:31.994Z,14.82
2022-09-28T01:06:59.226Z,14.82
2022-09-28T01:09:26.438Z,14.72
2022-09-28T01:11:53.145Z,14.45
2022-09-28T01:14:20.742Z,14.71
2022-09-28T01:16:47.731Z,14.65
2022-09-28T01:19:15.278Z,14.97
2022-09-28T01:21:51.530Z,14.73
2022-09-28T01:24:37.247Z,14.77
2022-09-28T01:27:05.956Z,14.83
2022-09-28T01:29:39.141Z,14.86
2022-09-28T01:32:24.956Z,15.03
2022-09-28T01:34:54.662Z,14.94
2022-09-28T01:37:21.905Z,15.14
2022-09-28T01:39:49.085Z,14.96
2022-09-28T01:42:20.800Z,15.07
2022-09-28T01:44:47.759Z,15.01
2022-09-28T01:47:15.530Z,14.99
2022-09-28T01:49:44.220Z,14.95
2022-09-28T01:52:12.539Z,15.06
2022-09-28T01:54:39.444Z,14.99
2022-09-28T01:57:09.699Z,15.10
2022-09-28T01:59:36.949Z,14.72
2022-09-28T02:02:05.211Z,14.89
2022-09-28T02:04:35.230Z,14.80
2022-09-28T02:07:02.989Z,15.07
2022-09-28T02:09:36.115Z,14.85
2022-09-28T02:12:05.373Z,14.74
2022-09-28T02:14:32.423Z,14.90
2022-09-28T02:17:01.222Z,14.84
2022-09-28T02:19:29.268Z,14.67
2022-09-28T02:21:59.603Z,14.76
2022-09-28T02:24:32.462Z,14.97
2022-09-28T02:27:00.314Z,14.87
2022-09-28T02:29:31.044Z,14.95
2022-09-28T02:31:57.849Z,14.94
2022-09-28T02:34:24.784Z,14.86
2022-09-28T02:36:51.864Z,14.97
2022-09-28T02:39:19.281Z,14.97
2022-09-28T02:42:00.579Z,15.10
2022-09-28T02:44:27.609Z,15.10
2022-09-28T02:47:04.230Z,14.88
2022-09-28T02:49:39.675Z,14.91
2022-09-28T02:52:06.324Z,15.01
2022-09-28T02:54:43.962Z,14.95
2022-09-28T02:57:46.167Z,15.05
2022-09-28T03:00:20.051Z,14.95
2022-09-28T03:02:59.890Z,15.03
2022-09-28T03:05:32.245Z,14.87
2022-09-28T03:07:59.907Z,14.79
2022-09-28T03:10:37.609Z,14.76
2022-09-28T03:13:04.730Z,14.61
2022-09-28T03:15:32.736Z,14.70
2022-09-28T03:17:59.827Z,14.73
2022-09-28T03:20:27.052Z,14.92
2022-09-28T03:23:19.779Z,14.80
2022-09-28T03:25:40.983Z,14.80
2022-09-28T03:28:08.281Z,14.86
2022-09-28T03:30:36.009Z,14.66
2022-09-28T03:33:03.205Z,14.73
2022-09-28T03:35:30.648Z,14.75
2022-09-28T03:37:57.334Z,14.71
2022-09-28T03:40:24.661Z,14.70
2022-09-28T03:42:52.316Z,14.60
2022-09-28T03:45:19.843Z,14.43
2022-09-28T03:47:48.726Z,14.61
2022-09-28T03:50:18.262Z,14.71
2022-09-28T03:52:44.975Z,14.73
2022-09-28T03:55:11.751Z,14.34
2022-09-28T03:57:38.799Z,14.57
2022-09-28T04:00:06.159Z,14.64
2022-09-28T04:02:40.276Z,14.64
2022-09-28T04:05:07.565Z,14.50
2022-09-28T04:07:34.387Z,14.61
2022-09-28T04:10:01.136Z,14.60
2022-09-28T04:12:28.120Z,14.57
2022-09-28T04:14:54.828Z,14.49
2022-09-28T04:17:21.576Z,14.50
2022-09-28T04:19:49.112Z,14.46
2022-09-28T04:22:16.287Z,14.53
2022-09-28T04:24:43.654Z,14.51
2022-09-28T04:27:29.427Z,14.28
2022-09-28T04:29:56.244Z,14.11
2022-09-28T04:32:23.269Z,14.37
2022-09-28T04:34:51.902Z,14.32
2022-09-28T04:37:18.914Z,14.48
2022-09-28T04:39:48.351Z,14.31
2022-09-28T04:42:16.640Z,14.13
2022-09-28T04:44:43.382Z,14.35
2022-09-28T04:47:10.348Z,14.31
2022-09-28T04:49:38.476Z,14.17
2022-09-28T04:52:06.093Z,14.31
2022-09-28T04:54:34.226Z,14.35
2022-09-28T04:57:01.759Z,14.20
2022-09-28T04:59:28.487Z,14.14
2022-09-28T05:01:55.568Z,14.22
2022-09-28T05:04:25.961Z,13.93
2022-09-28T05:06:53.937Z,13.93
2022-09-28T05:09:20.905Z,13.76
2022-09-28T05:11:52.276Z,13.62
2022-09-28T05:14:21.953Z,13.77
2022-09-28T05:16:49.064Z,13.79
2022-09-28T05:19:17.393Z,13.81
2022-09-28T05:21:44.733Z,13.95
2022-09-28T05:24:11.889Z,13.83
2022-09-28T05:26:39.805Z,13.82
2022-09-28T05:29:06.607Z,13.70
2022-09-28T05:31:34.696Z,13.77
2022-09-28T05:34:02.569Z,13.96
2022-09-28T05:36:30.981Z,13.89
2022-09-28T05:38:58.654Z,13.94
2022-09-28T05:41:25.404Z,14.03
2022-09-28T05:43:52.634Z,14.06
2022-09-28T05:46:21.865Z,14.16
2022-09-28T05:48:48.886Z,14.00
2022-09-28T05:51:15.649Z,13.95
2022-09-28T05:53:45.055Z,13.99
2022-09-28T05:56:12.019Z,14.17
2022-09-28T05:58:43.072Z,14.12
2022-09-28T06:01:10.667Z,14.24
2022-09-28T06:03:37.904Z,14.39
2022-09-28T06:06:04.595Z,14.56
2022-09-28T06:08:32.854Z,14.65
2022-09-28T06:11:01.389Z,14.55
2022-09-28T06:13:28.688Z,14.69
2022-09-28T06:15:56.240Z,14.77
2022-09-28T06:18:23.405Z,14.85
2022-09-28T06:20:51.422Z,14.85
2022-09-28T06:23:19.242Z,14.33
2022-09-28T06:25:46.456Z,14.73
2022-09-28T06:28:16.606Z,14.49
2022-09-28T06:30:43.588Z,14.67
2022-09-28T06:33:13.084Z,14.71
2022-09-28T06:35:40.799Z,14.95
2022-09-28T06:38:07.810Z,14.97
2022-09-28T06:40:34.968Z,15.08
2022-09-28T06:43:02.530Z,15.23
2022-09-28T06:45:29.872Z,15.12
2022-09-28T06:48:01.046Z,15.33
2022-09-28T06:50:32.326Z,15.46
2022-09-28T06:53:02.136Z,15.66
2022-09-28T06:55:29.228Z,15.67
2022-09-28T06:58:02.219Z,15.89
2022-09-28T07:00:31.243Z,16.26
2022-09-28T07:02:58.069Z,16.69
2022-09-28T07:05:29.544Z,16.85
2022-09-28T07:07:56.958Z,17.31
2022-09-28T07:10:24.608Z,17.40
2022-09-28T07:12:52.634Z,17.82
2022-09-28T07:15:20.419Z,18.33
2022-09-28T07:17:59.377Z,18.46
2022-09-28T07:20:28.215Z,18.73
2022-09-28T07:23:08.763Z,18.82
2022-09-28T07:25:48.059Z,19.21
2022-09-28T07:28:18.274Z,19.34
2022-09-28T07:30:46.677Z,19.63
2022-09-28T07:33:14.631Z,19.56
2022-09-28T07:35:42.435Z,20.25
2022-09-28T07:38:10.109Z,20.60
2022-09-28T07:40:56.548Z,20.64
2022-09-28T07:43:23.930Z,20.22
2022-09-28T07:45:52.410Z,20.42
2022-09-28T07:48:19.393Z,20.27
2022-09-28T07:50:48.000Z,20.89
2022-09-28T07:53:15.856Z,20.66
2022-09-28T07:55:43.346Z,20.32
2022-09-28T07:58:10.544Z,20.41
2022-09-28T08:00:37.661Z,21.11
2022-09-28T08:03:04.800Z,19.37
2022-09-28T08:05:32.239Z,19.84
2022-09-28T08:07:59.741Z,19.78
2022-09-28T08:10:26.996Z,19.64
2022-09-28T08:13:01.968Z,19.81
2022-09-28T08:15:36.205Z,19.80
2022-09-28T08:18:04.659Z,20.56
2022-09-28T08:20:51.839Z,20.73
2022-09-28T08:23:18.827Z,20.87
2022-09-28T08:25:48.791Z,20.89
2022-09-28T08:28:17.712Z,20.24
2022-09-28T08:30:48.164Z,20.92
2022-09-28T08:33:18.011Z,21.17
2022-09-28T08:35:57.558Z,21.16
2022-09-28T08:38:25.340Z,21.40
2022-09-28T08:41:20.048Z,21.46
2022-09-28T08:43:59.809Z,21.03
2022-09-28T08:46:30.870Z,21.17
2022-09-28T08:49:27.501Z,20.63
2022-09-28T08:51:55.624Z,20.60
2022-09-28T08:54:41.782Z,20.42
2022-09-28T08:57:19.390Z,20.01
2022-09-28T08:59:48.650Z,20.14
2022-09-28T09:02:17.264Z,20.64
2022-09-28T09:04:44.045Z,21.12
2022-09-28T09:07:17.958Z,19.96
2022-09-28T09:09:52.968Z,20.50
2022-09-28T09:12:29.183Z,20.63
2022-09-28T09:14:56.644Z,20.62
2022-09-28T09:17:29.543Z,20.72
2022-09-28T09:19:56.606Z,20.44
2022-09-28T09:22:36.169Z,20.80
2022-09-28T09:25:26.030Z,20.94
2022-09-28T09:28:15.153Z,20.83
2022-09-28T09:30:52.381Z,20.83
2022-09-28T09:33:38.281Z,20.73
2022-09-28T09:36:18.205Z,20.31
2022-09-28T09:38:50.621Z,20.62
2022-09-28T09:41:30.219Z,20.63
2022-09-28T09:43:59.868Z,19.90
2022-09-28T09:46:35.291Z,20.95
2022-09-28T09:49:07.044Z,20.61
2022-09-28T09:51:44.964Z,20.98
2022-09-28T09:54:14.788Z,20.42
2022-09-28T09:57:01.807Z,20.23
2022-09-28T09:59:36.585Z,20.22
2022-09-28T10:02:11.977Z,20.48
2022-09-28T10:04:41.072Z,20.09
2022-09-28T10:07:09.719Z,20.18
2022-09-28T10:09:43.588Z,20.51
2022-09-28T10:12:15.247Z,19.78
2022-09-28T10:14:42.577Z,20.03
2022-09-28T10:17:09.579Z,19.76
2022-09-28T10:19:42.456Z,19.94
2022-09-28T10:22:18.143Z,19.81
2022-09-28T10:24:46.045Z,20.07
2022-09-28T10:27:17.542Z,20.35
2022-09-28T10:29:54.361Z,19.89
2022-09-28T10:32:25.720Z,20.11
2022-09-28T10:34:53.226Z,19.93
2022-09-28T10:37:20.567Z,19.52
2022-09-28T10:39:53.472Z,19.92
2022-09-28T10:42:23.824Z,19.35
2022-09-28T10:44:55.980Z,19.15
2022-09-28T10:47:24.373Z,19.38
2022-09-28T10:49:52.017Z,19.62
2022-09-28T10:52:36.299Z,20.11
2022-09-28T10:55:16.075Z,19.36
2022-09-28T10:57:45.226Z,19.38
2022-09-28T11:00:30.798Z,19.63
2022-09-28T11:03:00.090Z,19.38
2022-09-28T11:05:30.178Z,19.57
2022-09-28T11:07:57.713Z,19.30
2022-09-28T11:10:27.934Z,19.57
2022-09-28T11:12:57.698Z,19.87
2022-09-28T11:15:26.115Z,19.68
2022-09-28T11:17:52.953Z,19.96
2022-09-28T11:20:28.281Z,20.10
2022-09-28T11:22:56.152Z,20.17
2022-09-28T11:25:26.081Z,20.07
2022-09-28T11:27:52.948Z,20.33
2022-09-28T11:30:26.426Z,19.90
2022-09-28T11:32:56.963Z,20.03
2022-09-28T11:35:36.720Z,20.51
2022-09-28T11:38:06.929Z,20.11
2022-09-28T11:40:47.639Z,20.14
2022-09-28T11:43:17.697Z,20.37
2022-09-28T11:45:47.978Z,19.87
2022-09-28T11:48:16.115Z,20.36
2022-09-28T11:50:50.760Z,20.54
2022-09-28T11:53:20.755Z,20.60
2022-09-28T11:55:48.129Z,20.41
2022-09-28T11:58:18.139Z,20.28
2022-09-28T12:00:46.646Z,20.86
2022-09-28T12:03:16.186Z,20.55
2022-09-28T12:05:46.701Z,20.15
2022-09-28T12:08:14.840Z,20.02
2022-09-28T12:10:48.122Z,20.44
2022-09-28T12:13:22.506Z,20.12
2022-09-28T12:16:27.294Z,20.42
2022-09-28T12:18:44.046Z,20.23
2022-09-28T12:21:17.755Z,19.82
2022-09-28T12:23:45.792Z,20.41
2022-09-28T12:26:24.723Z,20.20
2022-09-28T12:28:52.894Z,20.07
2022-09-28T12:31:25.398Z,20.03
2022-09-28T12:33:52.403Z,20.01
2022-09-28T12:36:21.870Z,20.14
2022-09-28T12:39:31.350Z,20.53
2022-09-28T12:42:12.389Z,20.58
2022-09-28T12:44:48.223Z,20.64
2022-09-28T12:47:24.283Z,20.04
2022-09-28T12:55:20.757Z,20.53
2022-09-28T12:57:52.565Z,20.32
2022-09-28T13:00:22.869Z,20.36
2022-09-28T13:02:59.435Z,20.11
2022-09-28T13:05:41.515Z,20.93
2022-09-28T13:08:08.856Z,20.87
2022-09-28T13:10:35.552Z,20.68
2022-09-28T13:13:10.316Z,20.61
2022-09-28T13:15:40.591Z,20.54
2022-09-28T13:18:16.656Z,20.18
2022-09-28T13:20:55.862Z,19.64
2022-09-28T13:23:23.911Z,19.84
2022-09-28T13:25:51.013Z,19.82
2022-09-28T13:28:18.916Z,19.39
2022-09-28T13:30:45.675Z,19.07
2022-09-28T13:33:15.750Z,19.67
2022-09-28T13:35:43.378Z,19.50
2022-09-28T13:38:16.406Z,19.54
2022-09-28T13:40:58.440Z,19.86
2022-09-28T13:43:27.829Z,19.79
2022-09-28T13:45:56.826Z,19.87
2022-09-28T13:48:25.704Z,19.49
2022-09-28T13:50:59.335Z,19.67
2022-09-28T13:53:32.350Z,19.61
2022-09-28T13:55:59.045Z,19.53
2022-09-28T13:58:33.566Z,19.35
2022-09-28T14:01:03.666Z,19.49
2022-09-28T14:03:36.865Z,19.51
2022-09-28T14:06:05.657Z,19.42
2022-09-28T14:08:39.835Z,19.37
2022-09-28T14:11:25.345Z,19.46
2022-09-28T14:13:59.608Z,19.33
2022-09-28T14:16:32.885Z,19.12
2022-09-28T14:19:04.460Z,19.12
2022-09-28T14:21:50.234Z,19.33
2022-09-28T14:24:27.381Z,19.48
2022-09-28T14:27:06.520Z,19.51
2022-09-28T14:29:34.530Z,19.55
2022-09-28T14:32:10.472Z,19.57
2022-09-28T14:34:44.091Z,19.67
2022-09-28T14:37:55.960Z,19.81
2022-09-28T14:40:48.722Z,19.62
2022-09-28T14:43:26.020Z,19.84
2022-09-28T14:46:11.651Z,19.77
2022-09-28T14:48:43.206Z,20.02
2022-09-28T14:51:33.123Z,19.74
2022-09-28T14:54:01.463Z,19.44
2022-09-28T14:56:32.588Z,19.48
2022-09-28T14:58:59.645Z,19.42
2022-09-28T15:01:26.517Z,19.94
2022-09-28T15:03:54.641Z,20.12
2022-09-28T15:06:24.477Z,19.77
2022-09-28T15:08:51.468Z,19.87
2022-09-28T15:11:20.360Z,20.00
2022-09-28T15:13:47.043Z,20.02
2022-09-28T15:16:14.582Z,19.90
2022-09-28T15:18:56.986Z,19.85
2022-09-28T15:21:23.995Z,20.05
2022-09-28T15:23:50.992Z,20.12
2022-09-28T15:26:22.201Z,19.93
2022-09-28T15:28:48.943Z,20.00
2022-09-28T15:31:20.035Z,19.93
2022-09-28T15:34:05.939Z,19.90
2022-09-28T15:36:35.128Z,19.54
2022-09-28T15:39:01.850Z,19.74
2022-09-28T15:41:28.751Z,19.93
2022-09-28T15:44:08.475Z,19.33
2022-09-28T15:46:36.756Z,19.72
2022-09-28T15:49:04.842Z,19.72
2022-09-28T15:51:32.370Z,19.63
2022-09-28T15:54:14.240Z,19.93
2022-09-28T15:57:10.646Z,20.12
2022-09-28T15:59:40.620Z,19.89
2022-09-28T16:02:11.731Z,19.87
2022-09-28T16:04:39.738Z,19.83
2022-09-28T16:07:09.747Z,20.04
2022-09-28T16:09:55.494Z,20.03
2022-09-28T16:12:22.898Z,19.91
2022-09-28T16:14:54.155Z,19.94
2022-09-28T16:17:33.048Z,19.83
2022-09-28T16:20:01.128Z,19.85
2022-09-28T16:22:28.925Z,19.78
2022-09-28T16:24:59.161Z,19.89
2022-09-28T16:27:42.075Z,19.93
2022-09-28T16:30:08.769Z,19.90
2022-09-28T16:32:41.848Z,19.91
2022-09-28T16:35:12.134Z,19.80
2022-09-28T16:37:42.925Z,19.67
2022-09-28T16:40:09.999Z,19.70
2022-09-28T16:42:36.755Z,19.58
2022-09-28T16:45:05.536Z,19.79
2022-09-28T16:47:34.425Z,19.87
2022-09-28T16:50:02.335Z,19.80
2022-09-28T16:52:50.790Z,19.81
2022-09-28T16:58:04.895Z,19.52
2022-09-28T17:00:32.904Z,19.81
2022-09-28T17:02:59.854Z,19.47
2022-09-28T17:05:27.245Z,19.57
2022-09-28T17:08:03.701Z,19.41
2022-09-28T17:10:35.432Z,19.42
2022-09-28T17:13:08.681Z,19.46
2022-09-28T17:15:35.908Z,19.43
2022-09-28T17:18:02.827Z,19.50
2022-09-28T17:20:29.742Z,19.24
2022-09-28T17:22:56.949Z,19.40
2022-09-28T17:25:24.186Z,19.46
2022-09-28T17:27:51.144Z,19.33
2022-09-28T17:30:20.291Z,19.33
2022-09-28T17:32:50.120Z,19.46
2022-09-28T17:35:25.865Z,19.33
2022-09-28T17:37:53.747Z,19.39
2022-09-28T17:40:28.733Z,19.23
2022-09-28T17:42:57.677Z,19.17
2022-09-28T17:45:26.963Z,18.96
2022-09-28T17:47:54.137Z,18.99
2022-09-28T17:50:21.239Z,18.95
2022-09-28T17:52:52.057Z,18.83
2022-09-28T17:55:20.231Z,19.01
2022-09-28T17:57:47.519Z,18.79
2022-09-28T18:00:14.458Z,18.90
2022-09-28T18:02:41.515Z,18.89
2022-09-28T18:05:13.367Z,18.67
2022-09-28T18:07:47.379Z,18.57
2022-09-28T18:10:16.002Z,18.53
2022-09-28T18:12:43.298Z,18.56
2022-09-28T18:15:10.511Z,18.37
2022-09-28T18:17:38.093Z,18.49
2022-09-28T18:20:06.067Z,18.58
2022-09-28T18:22:33.271Z,18.48
2022-09-28T18:25:01.299Z,18.39
2022-09-28T18:27:30.091Z,18.31
2022-09-28T18:29:56.999Z,18.23
2022-09-28T18:32:24.157Z,18.29
2022-09-28T18:34:50.939Z,18.40
2022-09-28T18:37:17.708Z,18.22
2022-09-28T18:39:46.069Z,18.42
2022-09-28T18:42:15.602Z,18.40
2022-09-28T18:44:42.402Z,18.34
2022-09-28T18:47:09.697Z,18.23
2022-09-28T19:14:56.527Z,18.23
2022-09-28T19:17:24.096Z,18.07
2022-09-28T19:19:51.741Z,18.05
2022-09-28T19:22:18.593Z,18.02
2022-09-28T19:24:46.303Z,17.98
2022-09-28T19:27:13.070Z,17.89
2022-09-28T19:30:06.850Z,18.11
2022-09-28T19:32:33.948Z,18.07
2022-09-28T19:35:00.639Z,18.25
2022-09-28T19:37:27.315Z,18.32
2022-09-28T19:39:54.392Z,18.17
2022-09-28T19:42:21.189Z,18.04
2022-09-28T19:44:48.096Z,17.96
2022-09-28T19:47:15.080Z,18.32
2022-09-28T19:49:41.805Z,18.40
2022-09-28T19:52:15.921Z,18.24
2022-09-28T19:54:54.464Z,17.99
2022-09-28T19:57:21.626Z,18.02
2022-09-28T19:59:52.544Z,18.04
2022-09-28T20:02:19.903Z,17.97
2022-09-28T20:04:47.004Z,17.97
2022-09-28T20:07:13.965Z,18.11
2022-09-28T20:09:40.967Z,18.07
2022-09-28T20:12:08.198Z,17.69
2022-09-28T20:14:38.164Z,17.76
2022-09-28T20:17:07.224Z,17.90
2022-09-28T20:19:35.016Z,18.08
2022-09-28T20:22:03.348Z,18.01
2022-09-28T20:24:31.501Z,17.90
2022-09-28T20:26:58.753Z,17.92
2022-09-28T20:29:25.608Z,17.81
